createdAt,value
2017-11-03T00:00:03.459Z,10.33
2017-11-03T00:02:32.012Z,13.90
2017-11-03T00:04:59.982Z,23.40
2017-11-03T00:10:02.092Z,10.80
2017-11-03T00:12:30.056Z,10.07
2017-11-03T00:14:57.995Z,12.30
2017-11-03T00:17:25.965Z,11.23
2017-11-03T00:19:53.912Z,7.93
2017-11-03T00:22:22.028Z,11.43
2017-11-03T00:24:50.036Z,10.70
2017-11-03T00:27:17.969Z,15.20
2017-11-03T00:29:46.028Z,13.87
2017-11-03T00:32:14.131Z,11.90
2017-11-03T00:34:42.117Z,13.83
2017-11-03T00:37:10.110Z,16.93
2017-11-03T00:39:38.056Z,11.57
2017-11-03T00:42:06.044Z,13.53
2017-11-03T00:44:33.992Z,15.87
2017-11-03T00:47:02.045Z,13.33
2017-11-03T00:49:30.829Z,12.33
2017-11-03T00:51:58.802Z,14.03
2017-11-03T00:54:26.797Z,15.43
2017-11-03T00:56:54.856Z,19.00
2017-11-03T00:59:22.858Z,11.37
2017-11-03T01:01:50.858Z,15.60
2017-11-03T01:04:18.855Z,12.40
2017-11-03T01:06:46.790Z,10.53
2017-11-03T01:09:14.793Z,13.27
2017-11-03T01:11:42.785Z,11.67
2017-11-03T01:14:10.842Z,14.60
2017-11-03T01:16:38.897Z,21.63
2017-11-03T01:19:06.946Z,13.77
2017-11-03T01:21:34.910Z,15.60
2017-11-03T01:24:02.828Z,17.47
2017-11-03T01:26:31.349Z,9.23
2017-11-03T01:28:59.287Z,14.43
2017-11-03T01:31:27.279Z,10.77
2017-11-03T01:33:55.228Z,15.13
2017-11-03T01:36:23.170Z,14.67
2017-11-03T01:38:51.171Z,19.53
2017-11-03T01:41:19.180Z,8.93
2017-11-03T01:43:47.152Z,14.03
2017-11-03T01:46:15.088Z,16.90
2017-11-03T01:48:43.022Z,14.70
2017-11-03T01:51:11.060Z,18.13
2017-11-03T01:53:39.057Z,9.30
2017-11-03T01:56:07.066Z,15.17
2017-11-03T01:58:34.981Z,11.00
2017-11-03T02:01:02.904Z,12.20
2017-11-03T02:03:30.862Z,11.13
2017-11-03T02:05:58.804Z,17.53
2017-11-03T02:08:26.740Z,12.83
2017-11-03T02:10:54.712Z,12.77
2017-11-03T02:13:22.689Z,10.93
2017-11-03T02:15:50.650Z,10.37
2017-11-03T02:18:18.554Z,16.40
2017-11-03T02:20:46.604Z,16.33
2017-11-03T02:23:14.553Z,14.00
2017-11-03T02:25:42.527Z,11.20
2017-11-03T02:28:10.464Z,13.57
2017-11-03T02:30:38.437Z,19.97
2017-11-03T02:33:06.358Z,14.50
2017-11-03T02:35:34.380Z,20.70
2017-11-03T02:38:02.318Z,12.10
2017-11-03T02:40:30.308Z,10.63
2017-11-03T02:42:58.237Z,16.60
2017-11-03T02:45:26.169Z,18.13
2017-11-03T02:47:59.361Z,13.57
2017-11-03T02:50:27.304Z,15.70
2017-11-03T02:52:55.274Z,15.27
2017-11-03T02:55:23.252Z,14.73
2017-11-03T02:57:51.213Z,14.20
2017-11-03T03:00:19.188Z,9.97
2017-11-03T03:02:47.131Z,19.47
2017-11-03T03:05:15.122Z,11.93
2017-11-03T03:07:43.087Z,10.67
2017-11-03T03:10:11.057Z,9.57
2017-11-03T03:12:38.988Z,13.67
2017-11-03T03:15:06.911Z,15.70
2017-11-03T03:17:34.860Z,18.83
2017-11-03T03:20:02.782Z,16.77
2017-11-03T03:22:30.721Z,12.70
2017-11-03T03:24:58.689Z,18.93
2017-11-03T03:27:26.638Z,10.60
2017-11-03T03:29:54.578Z,10.17
2017-11-03T03:32:22.530Z,16.97
2017-11-03T03:34:50.487Z,11.63
2017-11-03T03:37:18.438Z,8.20
2017-11-03T03:39:46.387Z,10.70
2017-11-03T03:42:14.374Z,18.47
2017-11-03T03:44:42.323Z,13.10
2017-11-03T03:47:10.396Z,12.47
2017-11-03T03:49:38.381Z,17.03
2017-11-03T03:52:06.331Z,18.67
2017-11-03T03:54:34.316Z,11.33
2017-11-03T03:57:02.271Z,12.40
2017-11-03T03:59:30.213Z,9.33
2017-11-03T04:01:58.155Z,17.50
2017-11-03T04:04:26.102Z,12.90
2017-11-03T04:06:54.065Z,13.00
2017-11-03T04:09:22.015Z,19.67
2017-11-03T04:11:49.984Z,13.00
2017-11-03T04:14:17.980Z,18.80
2017-11-03T04:16:45.918Z,20.60
2017-11-03T04:19:13.937Z,15.83
2017-11-03T04:21:41.873Z,19.87
2017-11-03T04:24:09.848Z,13.70
2017-11-03T04:26:37.820Z,14.33
2017-11-03T04:29:05.787Z,16.40
2017-11-03T04:31:33.758Z,19.17
2017-11-03T04:34:01.761Z,15.13
2017-11-03T04:36:29.746Z,10.70
2017-11-03T04:38:57.695Z,16.27
2017-11-03T04:41:25.634Z,12.70
2017-11-03T04:43:53.559Z,11.13
2017-11-03T04:46:21.570Z,16.80
2017-11-03T04:48:49.539Z,17.43
2017-11-03T04:51:17.516Z,15.43
2017-11-03T04:53:45.476Z,16.87
2017-11-03T04:56:13.447Z,20.50
2017-11-03T04:58:41.403Z,19.20
2017-11-03T05:01:09.387Z,12.90
2017-11-03T05:03:37.333Z,16.20
2017-11-03T05:06:05.276Z,17.00
2017-11-03T05:08:33.263Z,14.47
2017-11-03T05:11:01.244Z,16.67
2017-11-03T05:13:29.192Z,17.17
2017-11-03T05:15:57.141Z,11.17
2017-11-03T05:18:25.054Z,19.93
2017-11-03T05:20:53.939Z,13.87
2017-11-03T05:23:21.944Z,14.97
2017-11-03T05:25:49.910Z,13.63
2017-11-03T05:28:17.869Z,14.33
2017-11-03T05:30:45.852Z,16.03
2017-11-03T05:33:14.011Z,16.00
2017-11-03T05:35:41.936Z,14.00
2017-11-03T05:38:09.884Z,13.43
2017-11-03T05:40:37.811Z,11.40
2017-11-03T05:43:05.761Z,9.60
2017-11-03T05:45:33.763Z,12.83
2017-11-03T05:48:01.734Z,13.53
2017-11-03T05:50:29.704Z,7.80
2017-11-03T05:52:57.713Z,11.70
2017-11-03T05:55:25.657Z,10.10
2017-11-03T05:57:53.617Z,12.50
2017-11-03T06:00:21.586Z,8.97
2017-11-03T06:02:49.703Z,12.27
2017-11-03T06:05:17.650Z,7.93
2017-11-03T06:07:45.600Z,8.87
2017-11-03T06:10:13.548Z,8.07
2017-11-03T06:12:41.513Z,8.87
2017-11-03T06:15:09.442Z,10.60
2017-11-03T06:17:37.378Z,9.00
2017-11-03T06:20:05.300Z,15.20
2017-11-03T06:22:33.249Z,10.80
2017-11-03T06:25:01.181Z,8.67
2017-11-03T06:27:29.123Z,11.57
2017-11-03T06:29:57.083Z,16.00
2017-11-03T06:32:25.006Z,12.10
2017-11-03T06:34:52.937Z,11.97
2017-11-03T06:37:20.905Z,14.60
2017-11-03T06:39:48.834Z,11.00
2017-11-03T06:42:16.778Z,17.03
2017-11-03T06:44:44.773Z,14.63
2017-11-03T06:47:12.683Z,13.63
2017-11-03T06:49:40.615Z,12.73
2017-11-03T06:52:08.553Z,11.70
2017-11-03T06:54:36.560Z,17.60
2017-11-03T06:57:04.470Z,13.10
2017-11-03T06:59:32.488Z,13.73
2017-11-03T07:02:00.406Z,16.70
2017-11-03T07:04:28.338Z,9.30
2017-11-03T07:06:56.346Z,13.23
2017-11-03T07:09:24.305Z,14.90
2017-11-03T07:11:52.206Z,9.00
2017-11-03T07:14:20.284Z,11.80
2017-11-03T07:16:48.250Z,14.77
2017-11-03T07:19:16.257Z,11.13
2017-11-03T07:21:44.232Z,9.03
2017-11-03T07:24:12.200Z,15.80
2017-11-03T07:26:40.168Z,22.43
2017-11-03T07:29:08.125Z,12.50
2017-11-03T07:31:36.077Z,19.27
2017-11-03T07:34:04.995Z,19.77
2017-11-03T07:36:34.611Z,15.87
2017-11-03T07:39:02.672Z,15.30
2017-11-03T07:41:30.664Z,19.33
2017-11-03T07:43:58.601Z,12.03
2017-11-03T07:46:26.531Z,8.17
2017-11-03T07:48:54.491Z,18.90
2017-11-03T07:51:22.455Z,18.30
2017-11-03T07:53:50.438Z,14.23
2017-11-03T07:56:18.408Z,15.17
2017-11-03T07:58:47.131Z,14.63
2017-11-03T08:01:16.344Z,14.80
2017-11-03T08:03:44.682Z,16.30
2017-11-03T08:06:12.629Z,14.10
2017-11-03T08:08:40.551Z,16.07
2017-11-03T08:11:08.484Z,20.77
2017-11-03T08:13:36.434Z,13.43
2017-11-03T08:16:04.592Z,15.47
2017-11-03T08:18:32.532Z,19.40
2017-11-03T08:21:00.502Z,21.30
2017-11-03T08:23:28.447Z,14.73
2017-11-03T08:25:56.392Z,21.93
2017-11-03T08:28:24.717Z,21.40
2017-11-03T08:30:53.431Z,11.07
2017-11-03T08:33:21.428Z,16.30
2017-11-03T08:35:49.474Z,14.57
2017-11-03T08:38:18.133Z,15.30
2017-11-03T08:40:46.074Z,10.57
2017-11-03T08:43:14.011Z,12.60
2017-11-03T08:45:42.010Z,9.67
2017-11-03T08:48:09.946Z,14.10
2017-11-03T08:50:37.891Z,13.80
2017-11-03T08:53:05.852Z,10.87
2017-11-03T08:55:33.863Z,14.97
2017-11-03T08:58:02.059Z,11.90
2017-11-03T09:00:30.131Z,9.63
2017-11-03T09:02:58.027Z,13.63
2017-11-03T09:05:26.099Z,8.67
2017-11-03T09:07:54.226Z,11.30
2017-11-03T09:10:22.184Z,6.70
2017-11-03T09:12:50.139Z,12.00
2017-11-03T09:15:18.394Z,14.23
2017-11-03T09:17:46.870Z,8.33
2017-11-03T09:20:14.868Z,12.83
2017-11-03T09:22:42.803Z,13.57
2017-11-03T09:25:11.086Z,11.93
2017-11-03T09:27:40.679Z,8.43
2017-11-03T09:30:08.599Z,10.33
2017-11-03T09:32:37.534Z,14.13
2017-11-03T09:35:05.498Z,9.07
2017-11-03T09:37:34.024Z,14.17
2017-11-03T09:40:01.986Z,10.17
2017-11-03T09:42:30.059Z,13.13
2017-11-03T09:44:58.403Z,8.73
2017-11-03T09:47:26.373Z,12.50
2017-11-03T09:49:54.387Z,8.67
2017-11-03T09:52:22.515Z,11.20
2017-11-03T09:54:51.192Z,13.30
2017-11-03T09:57:19.265Z,7.87
2017-11-03T09:59:47.429Z,10.27
2017-11-03T10:02:15.370Z,11.53
2017-11-03T10:04:43.341Z,14.20
2017-11-03T10:07:11.267Z,8.93
2017-11-03T10:09:39.254Z,12.83
2017-11-03T10:12:07.251Z,10.97
2017-11-03T10:14:35.196Z,13.47
2017-11-03T10:17:03.930Z,12.73
2017-11-03T10:19:31.960Z,10.93
2017-11-03T10:22:00.562Z,13.00
2017-11-03T10:24:29.834Z,13.80
2017-11-03T10:26:58.456Z,12.87
2017-11-03T10:29:26.458Z,11.00
2017-11-03T10:31:54.451Z,14.97
2017-11-03T10:34:22.475Z,13.10
2017-11-03T10:36:50.600Z,11.87
2017-11-03T10:39:18.641Z,12.77
2017-11-03T10:41:46.650Z,11.27
2017-11-03T10:44:14.678Z,13.27
2017-11-03T10:46:42.676Z,9.47
2017-11-03T10:49:10.732Z,8.63
2017-11-03T10:51:38.673Z,6.77
2017-11-03T10:54:06.582Z,9.73
2017-11-03T10:56:34.603Z,17.40
2017-11-03T10:59:02.538Z,12.47
2017-11-03T11:01:30.549Z,10.37
2017-11-03T11:03:58.517Z,6.27
2017-11-03T11:06:26.473Z,10.57
2017-11-03T11:08:54.427Z,9.40
2017-11-03T11:11:22.431Z,4.90
2017-11-03T11:13:50.355Z,21.60
2017-11-03T11:16:18.351Z,22.43
2017-11-03T11:18:47.303Z,3.70
2017-11-03T11:21:15.246Z,11.53
2017-11-03T11:23:43.267Z,11.57
2017-11-03T11:26:11.328Z,7.67
2017-11-03T11:28:40.154Z,14.20
2017-11-03T11:31:08.085Z,7.50
2017-11-03T11:33:36.065Z,10.63
2017-11-03T11:36:04.036Z,10.10
2017-11-03T11:38:32.448Z,10.97
2017-11-03T11:41:00.619Z,8.63
2017-11-03T11:43:28.549Z,8.07
2017-11-03T11:45:56.549Z,7.17
2017-11-03T11:48:24.540Z,7.47
2017-11-03T11:50:52.753Z,12.53
2017-11-03T11:53:20.836Z,5.83
2017-11-03T11:55:48.890Z,7.40
2017-11-03T11:58:16.978Z,15.33
2017-11-03T12:00:45.167Z,10.53
2017-11-03T12:03:13.467Z,8.53
2017-11-03T12:05:41.471Z,12.80
2017-11-03T12:08:09.834Z,12.47
2017-11-03T12:10:37.890Z,8.37
2017-11-03T12:13:05.893Z,11.87
2017-11-03T12:15:33.866Z,13.93
2017-11-03T12:18:01.851Z,15.37
2017-11-03T12:20:29.799Z,7.43
2017-11-03T12:22:58.186Z,9.10
2017-11-03T12:25:26.346Z,8.50
2017-11-03T12:27:54.349Z,8.50
2017-11-03T12:30:22.369Z,8.20
2017-11-03T12:32:51.253Z,12.10
2017-11-03T12:35:19.303Z,34.90
2017-11-03T12:37:47.376Z,8.97
2017-11-03T12:40:15.581Z,10.40
2017-11-03T12:42:43.502Z,10.93
2017-11-03T12:45:11.447Z,5.40
2017-11-03T12:47:39.387Z,7.13
2017-11-03T12:50:07.331Z,9.00
2017-11-03T12:52:35.255Z,10.20
2017-11-03T12:55:03.189Z,11.10
2017-11-03T12:57:31.127Z,11.80
2017-11-03T12:59:59.211Z,9.10
2017-11-03T13:02:27.311Z,12.97
2017-11-03T13:04:55.268Z,7.80
2017-11-03T13:07:23.244Z,8.73
2017-11-03T13:09:51.284Z,10.20
2017-11-03T13:12:19.224Z,14.13
2017-11-03T13:14:47.148Z,8.60
2017-11-03T13:17:15.096Z,12.23
2017-11-03T13:19:43.140Z,9.90
2017-11-03T13:22:11.099Z,6.37
2017-11-03T13:24:39.093Z,11.10
2017-11-03T13:27:07.069Z,10.13
2017-11-03T13:29:35.030Z,6.43
2017-11-03T13:32:02.987Z,11.40
2017-11-03T13:34:30.957Z,11.63
2017-11-03T13:36:58.874Z,10.90
2017-11-03T13:39:26.871Z,10.70
2017-11-03T13:41:54.837Z,8.97
2017-11-03T13:44:23.364Z,13.10
2017-11-03T13:46:51.332Z,11.20
2017-11-03T13:49:19.273Z,7.67
2017-11-03T13:51:47.365Z,9.13
2017-11-03T13:54:15.374Z,12.63
2017-11-03T13:56:43.380Z,9.97
2017-11-03T13:59:11.312Z,11.30
2017-11-03T14:01:39.290Z,9.07
2017-11-03T14:04:07.986Z,15.87
2017-11-03T14:06:37.110Z,9.33
2017-11-03T14:09:05.092Z,9.40
2017-11-03T14:11:33.149Z,10.70
2017-11-03T14:14:01.067Z,9.40
2017-11-03T14:16:29.084Z,11.80
2017-11-03T14:18:57.079Z,13.27
2017-11-03T14:21:25.028Z,8.27
2017-11-03T14:23:53.036Z,8.30
2017-11-03T14:26:21.027Z,11.50
2017-11-03T14:28:49.134Z,7.80
2017-11-03T14:31:17.135Z,11.40
2017-11-03T14:33:45.104Z,12.37
2017-11-03T14:36:13.074Z,11.47
2017-11-03T14:38:41.038Z,13.03
2017-11-03T14:41:08.985Z,14.10
2017-11-03T14:43:36.979Z,15.40
2017-11-03T14:46:05.018Z,13.33
2017-11-03T14:48:32.971Z,19.30
2017-11-03T14:51:01.006Z,15.07
2017-11-03T14:53:28.938Z,7.27
2017-11-03T14:55:56.903Z,7.80
2017-11-03T14:58:24.852Z,10.10
2017-11-03T15:00:52.760Z,9.73
2017-11-03T15:03:20.710Z,19.27
2017-11-03T15:05:49.186Z,13.33
2017-11-03T15:08:17.189Z,11.53
2017-11-03T15:10:45.593Z,13.43
2017-11-03T15:13:13.895Z,11.13
2017-11-03T15:15:41.887Z,11.27
2017-11-03T15:18:10.366Z,13.27
2017-11-03T15:20:38.443Z,13.07
2017-11-03T15:23:06.379Z,10.10
2017-11-03T15:25:34.372Z,14.57
2017-11-03T15:28:03.065Z,17.17
2017-11-03T15:30:31.657Z,21.70
2017-11-03T15:32:59.624Z,15.93
2017-11-03T15:35:27.585Z,16.17
2017-11-03T15:37:56.100Z,23.43
2017-11-03T15:40:24.671Z,15.43
2017-11-03T15:42:52.738Z,22.30
2017-11-03T15:45:20.758Z,23.30
2017-11-03T15:47:48.743Z,15.73
2017-11-03T15:50:16.762Z,19.23
2017-11-03T15:52:44.905Z,16.67
2017-11-03T15:55:12.905Z,14.43
2017-11-03T15:57:40.859Z,14.07
2017-11-03T16:00:09.129Z,15.43
2017-11-03T16:02:37.392Z,12.17
2017-11-03T16:05:05.527Z,21.60
2017-11-03T16:07:33.520Z,16.60
2017-11-03T16:10:01.564Z,16.53
2017-11-03T16:12:31.138Z,20.23
2017-11-03T16:14:59.316Z,20.73
2017-11-03T16:17:27.630Z,18.63
2017-11-03T16:19:55.595Z,15.93
2017-11-03T16:22:35.513Z,16.87
2017-11-03T16:25:03.997Z,21.90
2017-11-03T16:27:32.057Z,12.60
2017-11-03T16:30:01.664Z,16.00
2017-11-03T16:32:29.621Z,15.50
2017-11-03T16:34:57.615Z,14.97
2017-11-03T16:37:25.631Z,12.80
2017-11-03T16:39:53.812Z,14.17
2017-11-03T16:42:21.814Z,13.97
2017-11-03T16:44:49.783Z,12.83
2017-11-03T16:47:19.857Z,12.17
2017-11-03T16:49:50.465Z,13.53
2017-11-03T16:52:21.238Z,12.07
2017-11-03T16:54:49.234Z,14.37
2017-11-03T16:57:17.559Z,14.63
2017-11-03T16:59:47.331Z,11.60
2017-11-03T17:02:15.691Z,15.17
2017-11-03T17:04:46.536Z,15.33
2017-11-03T17:07:16.278Z,15.73
2017-11-03T17:09:44.487Z,14.57
2017-11-03T17:12:14.119Z,12.43
2017-11-03T17:14:43.471Z,14.87
2017-11-03T17:17:11.469Z,11.43
2017-11-03T17:19:39.506Z,12.53
2017-11-03T17:22:07.558Z,14.50
2017-11-03T17:24:35.528Z,12.87
2017-11-03T17:27:03.539Z,11.10
2017-11-03T17:29:31.596Z,10.90
2017-11-03T17:31:59.523Z,13.43
2017-11-03T17:34:27.513Z,11.63
2017-11-03T17:36:55.507Z,10.67
2017-11-03T17:39:23.501Z,11.00
2017-11-03T17:41:51.442Z,10.60
2017-11-03T17:44:19.463Z,13.30
2017-11-03T17:46:47.404Z,8.27
2017-11-03T17:49:15.417Z,11.70
2017-11-03T17:51:43.392Z,11.03
2017-11-03T17:54:11.336Z,21.30
2017-11-03T17:56:39.321Z,11.07
2017-11-03T17:59:07.262Z,11.17
2017-11-03T18:01:35.274Z,10.80
2017-11-03T18:04:03.322Z,10.70
2017-11-03T18:06:31.292Z,11.37
2017-11-03T18:08:59.233Z,8.00
2017-11-03T18:11:27.214Z,9.83
2017-11-03T18:13:55.187Z,10.93
2017-11-03T18:16:23.180Z,9.00
2017-11-03T18:18:51.160Z,11.00
2017-11-03T18:21:19.132Z,10.93
2017-11-03T18:23:48.026Z,12.20
2017-11-03T18:26:16.055Z,12.53
2017-11-03T18:28:44.051Z,10.43
2017-11-03T18:31:12.964Z,10.50
2017-11-03T18:33:40.929Z,11.70
2017-11-03T18:36:09.706Z,10.00
2017-11-03T18:38:37.736Z,11.70
2017-11-03T18:41:05.749Z,11.73
2017-11-03T18:43:34.666Z,8.60
2017-11-03T18:46:02.667Z,14.03
2017-11-03T18:48:30.821Z,12.47
2017-11-03T18:50:59.316Z,10.37
2017-11-03T18:53:27.553Z,7.90
2017-11-03T18:55:55.543Z,9.93
2017-11-03T18:58:23.591Z,11.43
2017-11-03T19:00:51.546Z,18.57
2017-11-03T19:03:19.443Z,13.90
2017-11-03T19:05:47.373Z,11.80
2017-11-03T19:08:15.368Z,11.27
2017-11-03T19:10:43.428Z,13.83
2017-11-03T19:13:11.663Z,12.40
2017-11-03T19:15:39.690Z,12.73
2017-11-03T19:18:07.663Z,11.27
2017-11-03T19:20:35.621Z,20.57
2017-11-03T19:23:03.540Z,16.13
2017-11-03T19:25:31.512Z,15.40
2017-11-03T19:27:59.504Z,12.57
2017-11-03T19:30:27.426Z,15.73
2017-11-03T19:32:55.394Z,12.60
2017-11-03T19:35:23.352Z,14.03
2017-11-03T19:37:51.273Z,17.30
2017-11-03T19:40:19.231Z,19.70
2017-11-03T19:42:47.170Z,17.70
2017-11-03T19:45:15.223Z,59.73
2017-11-03T19:47:43.821Z,38.83
2017-11-03T19:50:11.767Z,15.87
2017-11-03T19:52:39.702Z,18.00
2017-11-03T19:55:07.648Z,16.77
2017-11-03T19:57:35.861Z,17.63
2017-11-03T20:00:03.844Z,21.27
2017-11-03T20:02:33.272Z,18.33
2017-11-03T20:05:01.287Z,19.37
2017-11-03T20:07:30.524Z,20.90
2017-11-03T20:09:58.465Z,22.20
2017-11-03T20:12:27.410Z,22.00
2017-11-03T20:14:55.331Z,16.80
2017-11-03T20:17:23.340Z,16.80
2017-11-03T20:19:51.362Z,18.13
2017-11-03T20:22:19.327Z,24.03
2017-11-03T20:24:47.241Z,21.57
2017-11-03T20:27:15.292Z,17.40
2017-11-03T20:29:43.228Z,16.00
2017-11-03T20:32:11.369Z,16.33
2017-11-03T20:34:39.371Z,19.27
2017-11-03T20:37:07.381Z,18.17
2017-11-03T20:39:35.576Z,18.87
2017-11-03T20:42:03.510Z,18.77
2017-11-03T20:44:31.786Z,19.40
2017-11-03T20:46:59.726Z,23.40
2017-11-03T20:49:27.661Z,17.37
2017-11-03T20:51:56.591Z,19.93
2017-11-03T20:54:24.522Z,22.87
2017-11-03T20:56:52.493Z,19.97
2017-11-03T20:59:20.782Z,18.63
2017-11-03T21:01:48.831Z,21.30
2017-11-03T21:04:16.819Z,24.17
2017-11-03T21:06:45.135Z,23.43
2017-11-03T21:09:13.092Z,27.80
2017-11-03T21:11:41.073Z,31.77
2017-11-03T21:14:09.685Z,20.27
2017-11-03T21:16:37.834Z,21.47
2017-11-03T21:19:05.773Z,28.83
2017-11-03T21:21:33.990Z,22.20
2017-11-03T21:24:02.037Z,25.33
2017-11-03T21:26:30.082Z,27.23
2017-11-03T21:28:58.106Z,26.40
2017-11-03T21:31:26.049Z,25.67
2017-11-03T21:33:53.989Z,22.63
2017-11-03T21:36:22.048Z,29.60
2017-11-03T21:38:50.100Z,44.63
2017-11-03T21:41:18.234Z,30.67
2017-11-03T21:43:46.220Z,26.07
2017-11-03T21:46:14.803Z,25.07
2017-11-03T21:48:42.763Z,25.70
2017-11-03T21:51:10.801Z,28.60
2017-11-03T21:53:38.786Z,27.50
2017-11-03T21:56:06.745Z,26.10
2017-11-03T21:58:34.803Z,29.80
2017-11-03T22:01:02.833Z,29.80
2017-11-03T22:03:30.776Z,24.10
2017-11-03T22:05:59.487Z,26.53
2017-11-03T22:08:27.519Z,27.60
2017-11-03T22:10:55.600Z,35.83
2017-11-03T22:13:23.579Z,31.40
2017-11-03T22:15:51.598Z,31.37
2017-11-03T22:18:19.828Z,35.60
2017-11-03T22:20:47.753Z,27.90
2017-11-03T22:23:15.679Z,30.97
2017-11-03T22:25:43.625Z,30.40
2017-11-03T22:28:11.547Z,57.97
2017-11-03T22:30:40.158Z,31.13
2017-11-03T22:33:08.948Z,29.90
2017-11-03T22:35:36.938Z,24.53
2017-11-03T22:38:04.854Z,32.70
2017-11-03T22:40:32.795Z,28.47
2017-11-03T22:43:00.759Z,29.13
2017-11-03T22:45:28.707Z,31.83
2017-11-03T22:47:56.648Z,28.73
2017-11-03T22:50:24.622Z,32.73
2017-11-03T22:52:52.623Z,27.13
2017-11-03T22:55:20.607Z,32.33
2017-11-03T22:57:48.571Z,31.00
2017-11-03T23:00:16.521Z,29.97
2017-11-03T23:02:44.522Z,27.00
2017-11-03T23:05:12.534Z,31.10
2017-11-03T23:07:40.591Z,29.83
2017-11-03T23:10:08.582Z,30.20
2017-11-03T23:12:36.554Z,26.67
2017-11-03T23:15:04.592Z,28.57
2017-11-03T23:17:32.540Z,28.83
2017-11-03T23:20:00.581Z,27.40
2017-11-03T23:22:28.659Z,25.87
2017-11-03T23:24:56.767Z,30.53
2017-11-03T23:27:24.760Z,26.83
2017-11-03T23:29:52.723Z,29.17
2017-11-03T23:32:20.735Z,27.70
2017-11-03T23:34:48.681Z,26.57
2017-11-03T23:37:16.630Z,26.53
2017-11-03T23:39:44.595Z,30.97
2017-11-03T23:42:12.724Z,30.53
2017-11-03T23:44:40.705Z,28.20
2017-11-03T23:47:08.685Z,31.37
2017-11-03T23:49:36.643Z,26.73
2017-11-03T23:52:04.632Z,25.30
2017-11-03T23:54:32.603Z,26.17
2017-11-03T23:57:00.595Z,28.43
2017-11-03T23:59:28.520Z,27.30
